createdAt,value
2023-04-28T00:01:41.978Z,6.87
2023-04-28T00:04:09.536Z,6.23
2023-04-28T00:06:37.095Z,7.00
2023-04-28T00:09:04.069Z,5.83
2023-04-28T00:11:31.019Z,4.93
2023-04-28T00:13:57.890Z,5.60
2023-04-28T00:16:24.929Z,5.13
2023-04-28T00:18:51.918Z,5.90
2023-04-28T00:21:18.925Z,5.50
2023-04-28T00:23:46.053Z,5.67
2023-04-28T00:26:13.054Z,5.10
2023-04-28T00:28:40.007Z,5.30
2023-04-28T00:31:16.032Z,5.40
2023-04-28T00:33:44.663Z,5.83
2023-04-28T00:36:12.239Z,5.97
2023-04-28T00:38:39.305Z,5.97
2023-04-28T00:41:06.451Z,5.80
2023-04-28T00:43:48.532Z,5.50
2023-04-28T00:46:25.282Z,5.50
2023-04-28T00:48:52.215Z,5.80
2023-04-28T00:51:19.222Z,5.67
2023-04-28T00:53:46.401Z,5.20
2023-04-28T00:56:13.395Z,5.97
2023-04-28T00:58:41.413Z,5.00
2023-04-28T01:01:10.621Z,5.20
2023-04-28T01:03:41.416Z,5.70
2023-04-28T01:06:09.987Z,5.97
2023-04-28T01:08:39.184Z,4.93
2023-04-28T01:11:07.138Z,5.83
2023-04-28T01:13:34.151Z,5.20
2023-04-28T01:16:01.701Z,5.50
2023-04-28T01:18:30.185Z,5.30
2023-04-28T01:20:57.054Z,5.90
2023-04-28T01:23:24.020Z,6.10
2023-04-28T01:25:50.876Z,5.57
2023-04-28T01:28:17.862Z,5.10
2023-04-28T01:30:44.831Z,5.87
2023-04-28T01:33:11.880Z,5.30
2023-04-28T01:35:39.114Z,5.17
2023-04-28T01:38:06.016Z,6.67
2023-04-28T01:40:33.009Z,5.23
2023-04-28T01:42:59.908Z,5.47
2023-04-28T01:45:26.821Z,5.83
2023-04-28T01:47:53.693Z,5.93
2023-04-28T01:50:20.644Z,5.47
2023-04-28T01:52:47.511Z,5.40
2023-04-28T01:55:14.474Z,5.33
2023-04-28T01:57:41.328Z,5.43
2023-04-28T02:00:09.356Z,6.20
2023-04-28T02:02:36.897Z,5.77
2023-04-28T02:05:04.082Z,5.30
2023-04-28T02:07:31.027Z,5.63
2023-04-28T02:09:57.886Z,5.80
2023-04-28T02:12:24.762Z,5.20
2023-04-28T02:14:51.742Z,6.20
2023-04-28T02:17:18.670Z,6.43
2023-04-28T02:19:45.621Z,4.83
2023-04-28T02:22:12.482Z,6.20
2023-04-28T02:24:39.320Z,5.90
2023-04-28T02:27:06.353Z,5.70
2023-04-28T02:29:33.291Z,7.67
2023-04-28T02:32:00.445Z,5.60
2023-04-28T02:34:27.407Z,5.90
2023-04-28T02:36:54.442Z,5.87
2023-04-28T02:39:22.533Z,5.20
2023-04-28T02:41:49.398Z,6.63
2023-04-28T02:44:16.572Z,6.53
2023-04-28T02:46:43.782Z,6.00
2023-04-28T02:49:10.739Z,6.17
2023-04-28T02:51:37.596Z,6.00
2023-04-28T02:54:04.596Z,5.70
2023-04-28T02:56:31.701Z,6.70
2023-04-28T02:58:58.584Z,6.07
2023-04-28T03:01:25.490Z,5.73
2023-04-28T03:03:52.517Z,6.57
2023-04-28T03:06:19.583Z,6.20
2023-04-28T03:08:46.459Z,5.60
2023-04-28T03:11:13.353Z,5.87
2023-04-28T03:13:40.359Z,6.20
2023-04-28T03:16:07.949Z,6.17
2023-04-28T03:18:34.908Z,6.13
2023-04-28T03:21:01.910Z,6.40
2023-04-28T03:23:28.854Z,6.00
2023-04-28T03:25:56.091Z,6.80
2023-04-28T03:28:22.952Z,5.23
2023-04-28T03:30:49.807Z,5.10
2023-04-28T03:33:16.752Z,6.63
2023-04-28T03:35:43.596Z,5.20
2023-04-28T03:38:10.434Z,6.13
2023-04-28T03:40:37.454Z,5.17
2023-04-28T03:43:05.035Z,6.23
2023-04-28T03:45:32.272Z,6.33
2023-04-28T03:47:59.608Z,6.50
2023-04-28T03:50:26.855Z,6.57
2023-04-28T03:52:53.878Z,5.67
2023-04-28T03:55:20.909Z,5.20
2023-04-28T03:57:48.075Z,5.43
2023-04-28T04:00:15.254Z,5.50
2023-04-28T04:02:42.479Z,6.23
2023-04-28T04:05:09.814Z,6.60
2023-04-28T04:07:36.820Z,5.80
2023-04-28T04:10:04.784Z,5.80
2023-04-28T04:12:31.894Z,6.73
2023-04-28T04:14:58.723Z,6.40
2023-04-28T04:17:25.619Z,6.40
2023-04-28T04:19:52.493Z,5.30
2023-04-28T04:22:19.356Z,5.77
2023-04-28T04:24:46.224Z,5.03
2023-04-28T04:27:13.110Z,5.47
2023-04-28T04:29:40.196Z,5.73
2023-04-28T04:32:07.268Z,5.73
2023-04-28T04:34:34.161Z,5.43
2023-04-28T04:37:01.017Z,5.60
2023-04-28T04:39:27.888Z,6.07
2023-04-28T04:41:54.800Z,6.07
2023-04-28T04:44:21.778Z,5.73
2023-04-28T04:46:48.828Z,5.97
2023-04-28T04:49:15.744Z,5.27
2023-04-28T04:51:42.787Z,5.63
2023-04-28T04:54:09.657Z,5.73
2023-04-28T04:56:37.327Z,5.50
2023-04-28T04:59:04.888Z,5.27
2023-04-28T05:01:31.807Z,5.13
2023-04-28T05:03:58.943Z,5.50
2023-04-28T05:06:25.974Z,6.23
2023-04-28T05:08:52.827Z,5.47
2023-04-28T05:11:19.859Z,6.50
2023-04-28T05:13:46.685Z,4.73
2023-04-28T05:16:13.577Z,5.00
2023-04-28T05:18:41.192Z,5.77
2023-04-28T05:21:08.104Z,5.40
2023-04-28T05:23:35.112Z,6.07
2023-04-28T05:26:03.092Z,5.80
2023-04-28T05:28:31.528Z,5.57
2023-04-28T05:30:58.383Z,5.60
2023-04-28T05:33:25.563Z,5.60
2023-04-28T05:35:52.585Z,6.13
2023-04-28T05:38:20.577Z,5.50
2023-04-28T05:40:48.951Z,5.77
2023-04-28T05:43:15.924Z,5.13
2023-04-28T05:45:42.962Z,5.50
2023-04-28T05:48:10.063Z,5.33
2023-04-28T05:50:38.917Z,5.00
2023-04-28T05:53:07.475Z,5.07
2023-04-28T05:55:36.284Z,5.20
2023-04-28T05:58:04.096Z,5.40
2023-04-28T06:00:31.432Z,6.27
2023-04-28T06:02:58.424Z,5.70
2023-04-28T06:05:26.096Z,5.33
2023-04-28T06:07:55.820Z,5.40
2023-04-28T06:10:26.104Z,6.60
2023-04-28T06:12:53.079Z,5.60
2023-04-28T06:15:20.261Z,5.33
2023-04-28T06:17:48.802Z,5.83
2023-04-28T06:20:16.410Z,6.47
2023-04-28T06:22:43.393Z,6.53
2023-04-28T06:25:10.289Z,6.60
2023-04-28T06:27:37.173Z,6.57
2023-04-28T06:30:04.722Z,7.00
2023-04-28T06:32:31.724Z,7.20
2023-04-28T06:34:58.782Z,6.67
2023-04-28T06:37:26.056Z,7.03
2023-04-28T06:39:52.997Z,7.17
2023-04-28T06:42:20.321Z,7.40
2023-04-28T06:44:47.177Z,6.97
2023-04-28T06:47:14.615Z,6.93
2023-04-28T06:49:43.816Z,7.60
2023-04-28T06:52:10.834Z,7.30
2023-04-28T06:54:38.405Z,6.60
2023-04-28T06:57:05.517Z,7.30
2023-04-28T06:59:32.496Z,7.97
2023-04-28T07:01:59.406Z,7.93
2023-04-28T07:04:27.232Z,7.73
2023-04-28T07:06:54.332Z,7.40
2023-04-28T07:09:21.282Z,7.10
2023-04-28T07:11:48.163Z,8.20
2023-04-28T07:14:15.338Z,6.20
2023-04-28T07:16:42.545Z,8.03
2023-04-28T07:19:09.417Z,7.30
2023-04-28T07:21:36.414Z,8.63
2023-04-28T07:24:03.456Z,7.77
2023-04-28T07:26:30.621Z,6.77
2023-04-28T07:28:57.486Z,7.00
2023-04-28T07:31:24.396Z,8.20
2023-04-28T07:33:51.524Z,7.80
2023-04-28T07:36:18.676Z,7.30
2023-04-28T07:38:45.643Z,7.80
2023-04-28T07:41:13.202Z,7.90
2023-04-28T07:43:41.109Z,6.97
2023-04-28T07:46:08.710Z,7.30
2023-04-28T07:48:35.995Z,7.67
2023-04-28T07:51:03.044Z,7.90
2023-04-28T07:53:29.892Z,7.47
2023-04-28T07:55:56.769Z,7.27
2023-04-28T07:58:23.789Z,8.07
2023-04-28T08:03:49.424Z,6.77
2023-04-28T08:06:16.555Z,8.00
2023-04-28T08:08:43.536Z,7.70
2023-04-28T08:11:10.614Z,7.10
2023-04-28T08:13:37.671Z,7.77
2023-04-28T08:16:05.545Z,6.50
2023-04-28T08:18:32.548Z,7.70
2023-04-28T08:20:59.503Z,8.33
2023-04-28T08:23:31.002Z,8.07
2023-04-28T08:25:58.803Z,7.43
2023-04-28T08:28:26.038Z,9.10
2023-04-28T08:30:54.336Z,8.07
2023-04-28T08:33:21.353Z,7.53
2023-04-28T08:35:48.209Z,7.93
2023-04-28T08:38:17.503Z,8.07
2023-04-28T08:40:44.692Z,9.00
2023-04-28T08:43:11.741Z,8.10
2023-04-28T08:45:44.777Z,8.77
2023-04-28T08:48:21.493Z,8.40
2023-04-28T08:50:54.568Z,9.00
2023-04-28T08:53:27.008Z,8.17
2023-04-28T08:55:59.348Z,9.57
2023-04-28T08:58:28.349Z,8.63
2023-04-28T09:00:55.416Z,9.63
2023-04-28T09:03:22.763Z,11.20
2023-04-28T09:05:50.181Z,8.50
2023-04-28T09:08:18.039Z,7.60
2023-04-28T09:10:44.909Z,8.00
2023-04-28T09:13:26.176Z,8.30
2023-04-28T09:16:02.693Z,8.80
2023-04-28T09:18:33.187Z,7.83
2023-04-28T09:21:10.714Z,8.30
2023-04-28T09:23:50.486Z,8.30
2023-04-28T09:26:17.609Z,7.77
2023-04-28T09:28:44.484Z,9.30
2023-04-28T09:31:29.054Z,8.50
2023-04-28T09:34:02.522Z,8.00
2023-04-28T09:36:30.856Z,9.00
2023-04-28T09:38:59.951Z,9.07
2023-04-28T09:41:43.524Z,9.57
2023-04-28T09:44:21.428Z,9.20
2023-04-28T09:46:48.784Z,8.27
2023-04-28T09:49:15.759Z,8.57
2023-04-28T09:51:43.025Z,9.30
2023-04-28T09:54:11.536Z,9.73
2023-04-28T09:56:44.055Z,9.33
2023-04-28T09:59:11.399Z,10.23
2023-04-28T10:01:41.292Z,9.13
2023-04-28T10:04:11.991Z,9.83
2023-04-28T10:06:40.299Z,10.03
2023-04-28T10:09:08.357Z,10.53
2023-04-28T10:11:35.872Z,9.57
2023-04-28T10:14:02.734Z,11.07
2023-04-28T10:16:33.076Z,11.07
2023-04-28T10:19:04.575Z,10.23
2023-04-28T10:21:49.294Z,10.57
2023-04-28T10:24:29.218Z,10.93
2023-04-28T10:27:10.020Z,10.50
2023-04-28T10:29:37.622Z,10.97
2023-04-28T10:32:21.221Z,11.00
2023-04-28T10:34:48.917Z,10.93
2023-04-28T10:37:17.220Z,12.40
2023-04-28T10:40:36.101Z,10.60
2023-04-28T10:43:04.951Z,10.37
2023-04-28T10:46:11.266Z,9.57
2023-04-28T10:48:46.904Z,10.80
2023-04-28T10:51:16.583Z,10.13
2023-04-28T10:53:47.838Z,10.00
2023-04-28T10:56:24.875Z,10.70
2023-04-28T10:59:00.180Z,8.77
2023-04-28T11:01:34.515Z,9.10
2023-04-28T11:04:13.373Z,8.80
2023-04-28T11:06:43.223Z,9.63
2023-04-28T11:09:32.803Z,10.17
2023-04-28T11:12:10.287Z,10.00
2023-04-28T11:14:40.568Z,11.00
2023-04-28T11:17:13.874Z,9.87
2023-04-28T11:19:51.172Z,10.00
2023-04-28T11:22:23.341Z,9.20
2023-04-28T11:24:58.155Z,8.10
2023-04-28T11:27:31.266Z,10.10
2023-04-28T11:29:59.679Z,8.37
2023-04-28T11:32:34.394Z,11.20
2023-04-28T11:35:04.476Z,10.90
2023-04-28T11:37:31.451Z,9.57
2023-04-28T11:39:58.396Z,10.07
2023-04-28T11:42:27.620Z,9.70
2023-04-28T11:44:55.104Z,8.87
2023-04-28T11:47:34.597Z,8.70
2023-04-28T11:50:02.875Z,8.67
2023-04-28T11:52:29.863Z,8.00
2023-04-28T11:55:02.217Z,8.07
2023-04-28T11:57:29.325Z,8.30
2023-04-28T12:00:21.771Z,9.20
2023-04-28T12:02:49.167Z,7.13
2023-04-28T12:05:16.618Z,7.40
2023-04-28T12:07:45.232Z,7.97
2023-04-28T12:10:16.530Z,7.40
2023-04-28T12:12:50.625Z,6.47
2023-04-28T12:15:21.193Z,7.10
2023-04-28T12:17:50.350Z,6.87
2023-04-28T12:20:39.594Z,6.70
2023-04-28T12:23:08.244Z,5.90
2023-04-28T12:25:47.797Z,5.90
2023-04-28T12:28:15.155Z,7.60
2023-04-28T12:30:43.261Z,6.67
2023-04-28T12:33:29.449Z,6.77
2023-04-28T12:35:58.122Z,5.90
2023-04-28T12:38:26.370Z,6.03
2023-04-28T12:40:53.808Z,6.80
2023-04-28T12:43:22.996Z,6.57
2023-04-28T12:45:55.040Z,6.50
2023-04-28T12:48:27.168Z,7.27
2023-04-28T12:50:54.008Z,6.47
2023-04-28T12:53:20.925Z,6.73
2023-04-28T12:55:47.832Z,5.87
2023-04-28T12:58:15.001Z,5.40
2023-04-28T13:00:41.938Z,4.63
2023-04-28T13:03:09.019Z,4.40
2023-04-28T13:05:36.139Z,4.20
2023-04-28T13:08:03.502Z,4.57
2023-04-28T13:10:30.766Z,4.40
2023-04-28T13:12:57.618Z,4.40
2023-04-28T13:15:24.741Z,4.10
2023-04-28T13:17:51.778Z,5.73
2023-04-28T13:20:18.742Z,4.40
2023-04-28T13:22:45.625Z,4.97
2023-04-28T13:25:12.535Z,4.90
2023-04-28T13:27:41.949Z,4.73
2023-04-28T13:30:11.703Z,5.37
2023-04-28T13:32:39.228Z,5.20
2023-04-28T13:35:08.800Z,4.23
2023-04-28T13:37:38.902Z,5.00
2023-04-28T13:40:07.148Z,4.57
2023-04-28T13:42:34.113Z,4.70
2023-04-28T13:45:01.062Z,4.43
2023-04-28T13:47:28.816Z,4.60
2023-04-28T13:49:56.029Z,4.73
2023-04-28T13:52:23.372Z,7.00
2023-04-28T13:54:50.427Z,7.93
2023-04-28T13:57:17.433Z,4.77
2023-04-28T13:59:45.282Z,4.70
2023-04-28T14:02:12.327Z,5.17
2023-04-28T14:04:39.377Z,5.33
2023-04-28T14:07:06.423Z,5.00
2023-04-28T14:09:33.502Z,4.57
2023-04-28T14:12:00.409Z,5.03
2023-04-28T14:14:27.299Z,8.70
2023-04-28T14:16:54.171Z,4.80
2023-04-28T14:19:21.273Z,4.93
2023-04-28T14:21:48.552Z,9.47
2023-04-28T14:24:15.494Z,4.47
2023-04-28T14:26:43.771Z,4.97
2023-04-28T14:29:10.694Z,5.07
2023-04-28T14:31:38.202Z,4.87
2023-04-28T14:34:08.604Z,5.00
2023-04-28T14:36:38.182Z,4.90
2023-04-28T14:39:05.110Z,5.23
2023-04-28T14:41:32.802Z,4.40
2023-04-28T14:43:59.737Z,4.70
2023-04-28T14:46:27.496Z,4.30
2023-04-28T14:48:54.474Z,3.53
2023-04-28T14:51:21.679Z,3.50
2023-04-28T14:53:49.066Z,3.10
2023-04-28T14:56:19.023Z,4.00
2023-04-28T14:58:48.384Z,3.83
2023-04-28T15:01:15.745Z,3.60
2023-04-28T15:03:43.478Z,4.00
2023-04-28T15:06:11.742Z,3.83
2023-04-28T15:08:40.329Z,3.40
2023-04-28T15:11:07.432Z,4.30
2023-04-28T15:13:34.984Z,3.37
2023-04-28T15:16:03.545Z,4.00
2023-04-28T15:18:30.923Z,3.07
2023-04-28T15:20:57.915Z,4.30
2023-04-28T15:23:24.816Z,3.30
2023-04-28T15:25:53.470Z,2.93
2023-04-28T15:28:22.583Z,3.77
2023-04-28T15:30:52.517Z,4.60
2023-04-28T15:33:19.514Z,3.07
2023-04-28T15:35:47.025Z,3.30
2023-04-28T15:38:17.011Z,3.37
2023-04-28T15:40:44.253Z,2.83
2023-04-28T15:43:14.579Z,2.90
2023-04-28T15:45:41.755Z,3.60
2023-04-28T15:48:09.938Z,3.03
2023-04-28T15:50:37.422Z,3.13
2023-04-28T15:53:04.294Z,3.70
2023-04-28T15:55:31.819Z,3.43
2023-04-28T15:57:58.824Z,2.80
2023-04-28T16:00:25.752Z,2.80
2023-04-28T16:02:52.825Z,3.00
2023-04-28T16:05:20.048Z,3.00
2023-04-28T16:07:48.395Z,2.83
2023-04-28T16:10:16.876Z,2.60
2023-04-28T16:12:44.137Z,2.03
2023-04-28T16:15:13.570Z,2.83
2023-04-28T16:17:41.765Z,2.70
2023-04-28T16:20:11.555Z,2.67
2023-04-28T16:22:41.225Z,3.10
2023-04-28T16:25:09.559Z,3.10
2023-04-28T16:27:38.374Z,2.70
2023-04-28T16:30:07.306Z,3.07
2023-04-28T16:32:36.462Z,2.67
2023-04-28T16:35:06.075Z,2.67
2023-04-28T16:37:33.116Z,2.50
2023-04-28T16:40:00.011Z,2.57
2023-04-28T16:42:27.187Z,2.13
2023-04-28T16:44:54.060Z,2.60
2023-04-28T16:47:21.336Z,2.90
2023-04-28T16:49:48.728Z,3.00
2023-04-28T16:52:16.550Z,3.17
2023-04-28T16:54:43.878Z,3.17
2023-04-28T16:57:10.920Z,3.33
2023-04-28T16:59:38.006Z,3.47
2023-04-28T17:02:05.006Z,3.03
2023-04-28T17:04:32.553Z,2.90
2023-04-28T17:06:59.942Z,3.50
2023-04-28T17:09:27.924Z,4.17
2023-04-28T17:11:55.199Z,3.60
2023-04-28T17:14:22.287Z,3.37
2023-04-28T17:16:49.465Z,4.13
2023-04-28T17:19:16.674Z,3.57
2023-04-28T17:21:43.636Z,6.77
2023-04-28T17:24:10.643Z,5.67
2023-04-28T17:26:37.598Z,4.37
2023-04-28T17:29:04.807Z,4.30
2023-04-28T17:31:31.885Z,4.00
2023-04-28T17:34:00.311Z,4.87
2023-04-28T17:36:28.495Z,4.10
2023-04-28T17:38:56.225Z,4.50
2023-04-28T17:41:23.397Z,3.60
2023-04-28T17:43:53.677Z,4.63
2023-04-28T17:46:21.684Z,4.40
2023-04-28T17:48:49.148Z,4.77
2023-04-28T17:51:16.063Z,19.00
2023-04-28T17:53:43.137Z,11.83
2023-04-28T17:56:10.805Z,14.90
2023-04-28T17:58:37.705Z,5.60
2023-04-28T18:01:08.081Z,5.23
2023-04-28T18:03:38.185Z,3.57
2023-04-28T18:06:07.706Z,3.20
2023-04-28T18:08:36.517Z,3.93
2023-04-28T18:11:04.620Z,4.33
2023-04-28T18:13:33.364Z,4.10
2023-04-28T18:16:01.193Z,3.50
2023-04-28T18:18:33.919Z,3.10
2023-04-28T18:21:02.826Z,3.40
2023-04-28T18:23:32.927Z,3.40
2023-04-28T18:25:59.905Z,3.40
2023-04-28T18:28:26.816Z,4.07
2023-04-28T18:30:53.720Z,3.50
2023-04-28T18:33:23.239Z,4.00
2023-04-28T18:36:04.959Z,5.57
2023-04-28T18:38:36.017Z,4.37
2023-04-28T18:41:14.812Z,4.03
2023-04-28T18:43:42.941Z,4.13
2023-04-28T18:46:10.578Z,3.33
2023-04-28T18:48:37.764Z,4.70
2023-04-28T18:51:05.435Z,3.30
2023-04-28T18:53:32.783Z,4.10
2023-04-28T18:55:59.712Z,4.03
2023-04-28T18:58:28.200Z,4.40
2023-04-28T19:00:55.221Z,10.70
2023-04-28T19:03:22.907Z,10.60
2023-04-28T19:05:50.377Z,5.57
2023-04-28T19:08:17.323Z,3.73
2023-04-28T19:10:44.432Z,3.17
2023-04-28T19:13:11.339Z,3.10
2023-04-28T19:15:38.280Z,2.70
2023-04-28T19:18:05.384Z,3.47
2023-04-28T19:20:32.456Z,3.00
2023-04-28T19:23:05.510Z,2.13
2023-04-28T19:25:34.911Z,2.97
2023-04-28T19:28:01.909Z,2.60
2023-04-28T19:30:28.868Z,2.77
2023-04-28T19:32:55.889Z,2.50
2023-04-28T19:35:23.284Z,2.70
2023-04-28T19:37:50.552Z,2.60
2023-04-28T19:40:17.725Z,2.10
2023-04-28T19:42:44.635Z,2.13
2023-04-28T19:45:11.977Z,2.10
2023-04-28T19:47:39.362Z,2.17
2023-04-28T19:50:09.968Z,2.00
2023-04-28T19:52:37.314Z,3.20
2023-04-28T19:55:04.578Z,2.67
2023-04-28T19:57:31.540Z,2.00
2023-04-28T20:00:00.623Z,2.00
2023-04-28T20:02:27.761Z,2.47
2023-04-28T20:04:56.499Z,2.23
2023-04-28T20:07:23.367Z,1.80
2023-04-28T20:09:52.280Z,2.10
2023-04-28T20:12:19.460Z,1.60
2023-04-28T20:14:46.954Z,1.70
2023-04-28T20:17:13.931Z,2.13
2023-04-28T20:19:41.044Z,2.20
2023-04-28T20:22:08.836Z,2.40
2023-04-28T20:24:37.054Z,1.93
2023-04-28T20:27:04.412Z,1.70
2023-04-28T20:29:34.901Z,2.30
2023-04-28T20:32:03.559Z,1.80
2023-04-28T20:34:31.414Z,1.80
2023-04-28T20:37:03.401Z,1.93
2023-04-28T20:39:30.607Z,2.03
2023-04-28T20:41:58.673Z,1.90
2023-04-28T20:44:25.826Z,1.90
2023-04-28T20:46:53.170Z,1.90
2023-04-28T20:49:20.068Z,2.17
2023-04-28T20:51:47.761Z,2.20
2023-04-28T20:54:15.085Z,1.77
2023-04-28T20:56:42.772Z,1.90
2023-04-28T20:59:09.712Z,2.00
2023-04-28T21:01:36.810Z,2.10
2023-04-28T21:04:03.906Z,2.20
2023-04-28T21:06:30.908Z,1.87
2023-04-28T21:08:57.775Z,2.00
2023-04-28T21:11:24.713Z,1.90
2023-04-28T21:13:51.570Z,2.40
2023-04-28T21:16:21.517Z,2.20
2023-04-28T21:18:49.939Z,2.00
2023-04-28T21:21:18.130Z,2.07
2023-04-28T21:23:45.477Z,2.20
2023-04-28T21:26:12.720Z,2.07
2023-04-28T21:28:40.028Z,2.20
2023-04-28T21:31:07.388Z,1.67
2023-04-28T21:33:34.442Z,2.27
2023-04-28T21:36:07.823Z,1.80
2023-04-28T21:38:37.745Z,2.50
2023-04-28T21:41:05.439Z,2.30
2023-04-28T21:43:32.365Z,2.50
2023-04-28T21:45:59.436Z,2.20
2023-04-28T21:48:26.353Z,2.70
2023-04-28T21:50:53.308Z,2.60
2023-04-28T21:53:20.472Z,2.40
2023-04-28T21:55:47.429Z,2.70
2023-04-28T21:58:15.049Z,2.53
2023-04-28T22:00:48.710Z,2.90
2023-04-28T22:03:16.534Z,2.97
2023-04-28T22:05:44.991Z,2.70
2023-04-28T22:08:13.916Z,2.97
2023-04-28T22:10:41.194Z,2.90
2023-04-28T22:13:08.991Z,2.80
2023-04-28T22:15:35.984Z,3.20
2023-04-28T22:18:02.886Z,2.70
2023-04-28T22:20:29.861Z,2.83
2023-04-28T22:22:57.416Z,3.57
2023-04-28T22:25:24.583Z,2.80
2023-04-28T22:27:51.513Z,3.47
2023-04-28T22:30:18.466Z,3.70
2023-04-28T22:32:46.855Z,2.90
2023-04-28T22:35:14.475Z,3.03
2023-04-28T22:37:41.376Z,2.83
2023-04-28T22:40:09.379Z,3.00
2023-04-28T22:42:38.842Z,3.20
2023-04-28T22:45:07.150Z,3.53
2023-04-28T22:47:35.621Z,3.10
2023-04-28T22:50:06.457Z,2.70
2023-04-28T22:52:35.021Z,3.30
2023-04-28T22:55:02.399Z,3.10
2023-04-28T22:57:29.329Z,3.40
2023-04-28T22:59:56.360Z,3.70
2023-04-28T23:02:23.550Z,3.87
2023-04-28T23:04:51.063Z,2.97
2023-04-28T23:07:18.159Z,2.80
2023-04-28T23:09:45.062Z,3.40
2023-04-28T23:12:12.219Z,3.67
2023-04-28T23:14:39.678Z,3.87
2023-04-28T23:17:06.653Z,3.40
2023-04-28T23:19:35.481Z,3.87
2023-04-28T23:22:02.472Z,5.30
2023-04-28T23:24:29.374Z,3.50
2023-04-28T23:26:56.526Z,3.17
2023-04-28T23:29:23.773Z,3.63
2023-04-28T23:31:54.445Z,4.40
2023-04-28T23:34:23.118Z,3.67
2023-04-28T23:36:50.900Z,4.20
2023-04-28T23:39:18.524Z,4.10
2023-04-28T23:41:45.423Z,4.03
2023-04-28T23:44:12.521Z,4.73
2023-04-28T23:46:39.397Z,4.40
2023-04-28T23:49:06.488Z,4.53
2023-04-28T23:51:33.634Z,5.17
2023-04-28T23:54:01.437Z,4.30
2023-04-28T23:56:28.934Z,5.17
2023-04-28T23:58:56.013Z,3.90
